createdAt,value
2017-08-27T19:16:31.899Z,994.72
2017-08-27T19:17:02.076Z,994.82
2017-08-27T19:18:02.640Z,994.71
2017-08-27T19:19:03.525Z,994.77
2017-08-27T19:20:03.793Z,994.72
2017-08-27T19:21:03.232Z,994.78
2017-08-27T19:22:03.312Z,994.80
2017-08-27T19:23:03.204Z,994.85
2017-08-27T19:24:02.672Z,994.79
2017-08-27T19:25:02.674Z,994.87
2017-08-27T19:26:02.731Z,994.84
2017-08-27T19:27:03.556Z,994.91
2017-08-27T19:28:02.702Z,994.92
2017-08-27T19:29:08.287Z,994.90
2017-08-27T19:30:02.657Z,994.88
2017-08-27T19:31:03.541Z,994.93
2017-08-27T19:32:03.527Z,994.96
2017-08-27T19:33:03.589Z,994.99
2017-08-27T19:34:03.463Z,994.98
2017-08-27T19:35:03.546Z,994.98
2017-08-27T19:36:03.572Z,994.97
2017-08-27T19:37:03.618Z,995.00
2017-08-27T19:38:07.839Z,995.00
2017-08-27T19:39:02.695Z,994.96
2017-08-27T19:40:03.159Z,994.99
2017-08-27T19:41:03.147Z,995.08
2017-08-27T19:42:03.210Z,995.11
2017-08-27T19:43:03.126Z,995.10
2017-08-27T19:44:03.184Z,995.08
2017-08-27T19:45:03.175Z,995.06
2017-08-27T19:46:03.515Z,995.11
2017-08-27T19:47:03.201Z,995.12
2017-08-27T19:48:03.554Z,995.18
2017-08-27T19:49:03.566Z,995.15
2017-08-27T19:50:03.623Z,995.11
2017-08-27T19:51:03.633Z,995.16
2017-08-27T19:52:03.681Z,995.16
2017-08-27T19:53:03.627Z,995.16
2017-08-27T19:54:03.128Z,995.22
2017-08-27T19:55:03.141Z,995.19
2017-08-27T19:56:03.204Z,995.22
2017-08-27T19:57:04.061Z,995.27
2017-08-27T19:58:02.819Z,995.25
2017-08-27T19:59:02.759Z,995.26
2017-08-27T20:00:02.760Z,995.23
2017-08-27T20:01:02.843Z,995.21
2017-08-27T20:02:03.248Z,995.27
2017-08-27T20:03:03.243Z,995.26
2017-08-27T20:04:03.629Z,995.28
2017-08-27T20:05:03.407Z,995.34
2017-08-27T20:06:03.683Z,995.38
2017-08-27T20:14:57.109Z,995.43
2017-08-27T20:14:57.742Z,995.44
2017-08-27T20:14:58.527Z,995.40
2017-08-27T20:14:59.136Z,995.45
2017-08-27T20:15:00.044Z,995.47
2017-08-27T20:15:00.657Z,995.44
2017-08-27T20:15:02.894Z,995.45
2017-08-27T20:16:03.224Z,995.46
2017-08-27T20:17:03.280Z,995.52
2017-08-27T20:20:03.515Z,995.49
2017-08-27T20:20:04.329Z,995.53
2017-08-27T20:20:04.936Z,995.51
2017-08-27T20:21:03.685Z,995.43
2017-08-27T20:22:03.644Z,995.50
2017-08-27T20:23:03.800Z,995.53
2017-08-27T20:24:03.711Z,995.55
2017-08-27T20:25:03.719Z,995.46
2017-08-27T20:26:03.707Z,995.52
2017-08-27T20:27:03.258Z,995.50
2017-08-27T20:28:03.438Z,995.53
2017-08-27T20:29:03.364Z,995.48
2017-08-27T20:30:03.532Z,995.54
2017-08-27T20:31:02.868Z,995.53
2017-08-27T20:32:02.902Z,995.57
2017-08-27T20:33:03.047Z,995.56
2017-08-27T20:34:02.886Z,995.64
2017-08-27T20:35:03.019Z,995.63
2017-08-27T20:36:03.365Z,995.60
2017-08-27T20:37:03.854Z,995.58
2017-08-27T20:38:03.701Z,995.66
2017-08-27T20:39:03.855Z,995.62
2017-08-27T20:40:03.804Z,995.68
2017-08-27T20:41:03.754Z,995.60
2017-08-27T20:42:03.818Z,995.66
2017-08-27T20:43:03.293Z,995.55
2017-08-27T20:44:03.433Z,995.63
2017-08-27T20:45:03.398Z,995.56
2017-08-27T20:46:02.941Z,995.65
2017-08-27T20:47:02.931Z,995.65
2017-08-27T20:48:02.973Z,995.70
2017-08-27T20:49:02.913Z,995.62
2017-08-27T20:50:04.172Z,995.64
2017-08-27T20:51:02.989Z,995.66
2017-08-27T20:52:04.554Z,995.67
2017-08-27T20:53:02.980Z,995.68
2017-08-27T20:54:04.510Z,995.68
2017-08-27T20:55:02.954Z,995.72
2017-08-27T20:56:03.796Z,995.65
2017-08-27T20:57:03.735Z,995.61
2017-08-27T20:58:03.791Z,995.66
2017-08-27T20:59:03.325Z,995.65
2017-08-27T21:00:03.404Z,995.65
2017-08-27T21:01:03.361Z,995.68
2017-08-27T21:02:03.415Z,995.65
2017-08-27T21:03:02.953Z,995.73
2017-08-27T21:04:03.014Z,995.76
2017-08-27T21:05:02.972Z,995.75
2017-08-27T21:06:03.004Z,995.72
2017-08-27T21:07:03.338Z,995.72
2017-08-27T21:08:03.474Z,995.78
2017-08-27T21:09:03.809Z,995.73
2017-08-27T21:10:03.861Z,995.73
2017-08-27T21:11:03.804Z,995.72
2017-08-27T21:12:03.844Z,995.69
2017-08-27T21:13:03.785Z,995.84
2017-08-27T21:14:03.821Z,995.73
2017-08-27T21:15:03.860Z,995.73
2017-08-27T21:16:03.391Z,995.79
2017-08-27T21:17:03.533Z,995.82
2017-08-27T21:18:02.967Z,995.82
2017-08-27T21:19:03.058Z,995.78
2017-08-27T21:20:03.644Z,995.80
2017-08-27T21:21:03.074Z,995.78
2017-08-27T21:22:03.018Z,995.78
2017-08-27T21:23:03.463Z,995.76
2017-08-27T21:24:03.403Z,995.80
2017-08-27T21:25:03.845Z,995.79
2017-08-27T21:26:03.584Z,995.74
2017-08-27T21:27:03.823Z,995.75
2017-08-27T21:28:03.869Z,995.79
2017-08-27T21:29:03.827Z,995.75
2017-08-27T21:30:04.085Z,995.73
2017-08-27T21:31:03.528Z,995.76
2017-08-27T21:32:03.497Z,995.73
2017-08-27T21:33:03.465Z,995.77
2017-08-27T21:34:03.523Z,995.72
2017-08-27T21:35:03.065Z,995.70
2017-08-27T21:36:03.093Z,995.73
2017-08-27T21:37:03.029Z,995.75
2017-08-27T21:38:03.059Z,995.76
2017-08-27T21:39:03.096Z,995.77
2017-08-27T21:40:03.121Z,995.75
2017-08-27T21:41:03.556Z,995.74
2017-08-27T21:42:03.620Z,995.79
2017-08-27T21:43:03.957Z,995.78
2017-08-27T21:44:03.795Z,995.70
2017-08-27T21:45:04.033Z,995.74
2017-08-27T21:46:03.974Z,995.73
2017-08-27T21:47:04.037Z,995.73
2017-08-27T21:48:03.594Z,995.76
2017-08-27T21:49:03.548Z,995.78
2017-08-27T21:50:03.485Z,995.76
2017-08-27T21:51:03.117Z,995.80
2017-08-27T21:52:39.081Z,995.79
2017-08-27T21:52:40.525Z,995.79
2017-08-27T21:53:03.088Z,995.80
2017-08-27T21:54:03.520Z,995.78
2017-08-27T21:55:03.588Z,995.77
2017-08-27T21:56:03.519Z,995.78
2017-08-27T21:57:03.548Z,995.82
2017-08-27T21:58:03.590Z,995.89
2017-08-27T21:59:03.943Z,995.88
2017-08-27T22:00:03.949Z,995.92
2017-08-27T22:01:04.117Z,995.97
2017-08-27T22:02:03.957Z,995.96
2017-08-27T22:03:03.598Z,995.85
2017-08-27T22:04:03.560Z,995.87
2017-08-27T22:05:04.109Z,995.85
2017-08-27T22:06:03.559Z,995.88
2017-08-27T22:07:03.141Z,995.84
2017-08-27T22:08:03.189Z,995.77
2017-08-27T22:09:03.140Z,995.79
2017-08-27T22:10:03.190Z,995.87
2017-08-27T22:11:03.155Z,995.85
2017-08-27T22:12:03.594Z,995.81
2017-08-27T22:13:03.660Z,995.88
2017-08-27T22:14:04.005Z,995.88
2017-08-27T22:15:04.061Z,995.88
2017-08-27T22:16:04.012Z,995.88
2017-08-27T22:17:04.157Z,995.80
2017-08-27T22:18:04.031Z,995.88
2017-08-27T22:19:03.985Z,995.87
2017-08-27T22:20:04.043Z,995.91
2017-08-27T22:21:03.585Z,995.89
2017-08-27T22:22:03.623Z,995.85
2017-08-27T22:23:03.172Z,995.84
2017-08-27T22:24:03.210Z,995.78
2017-08-27T22:25:03.261Z,995.78
2017-08-27T22:26:03.197Z,995.78
2017-08-27T22:27:03.158Z,995.73
2017-08-27T22:28:03.193Z,995.78
2017-08-27T22:29:03.740Z,995.77
2017-08-27T22:30:03.698Z,995.75
2017-08-27T22:31:04.040Z,995.75
2017-08-27T22:32:04.082Z,995.73
2017-08-27T22:33:04.023Z,995.78
2017-08-27T22:34:04.079Z,995.78
2017-08-27T22:35:04.306Z,995.75
2017-08-27T22:36:04.048Z,995.71
2017-08-27T22:37:04.197Z,995.75
2017-08-27T22:38:03.752Z,995.70
2017-08-27T22:39:03.695Z,995.80
2017-08-27T22:40:03.753Z,995.76
2017-08-27T22:41:03.303Z,995.77
2017-08-27T22:42:03.241Z,995.79
2017-08-27T22:43:03.299Z,995.73
2017-08-27T22:44:03.236Z,995.78
2017-08-27T22:45:03.776Z,995.80
2017-08-27T22:46:03.721Z,995.82
2017-08-27T22:47:04.072Z,995.76
2017-08-27T22:48:04.133Z,995.74
2017-08-27T22:49:04.103Z,995.85
2017-08-27T22:50:04.263Z,995.72
2017-08-27T22:51:04.116Z,995.75
2017-08-27T22:52:03.757Z,995.66
2017-08-27T22:53:04.167Z,995.66
2017-08-27T22:54:03.708Z,995.73
2017-08-27T22:55:03.702Z,995.71
2017-08-27T22:56:03.251Z,995.71
2017-08-27T22:57:03.276Z,995.69
2017-08-27T22:58:03.308Z,995.71
2017-08-27T22:59:03.346Z,995.78
2017-08-27T23:00:03.305Z,995.72
2017-08-27T23:01:03.753Z,995.73
2017-08-27T23:02:03.697Z,995.72
2017-08-27T23:03:03.852Z,995.73
2017-08-27T23:04:04.204Z,995.80
2017-08-27T23:05:04.204Z,995.78
2017-08-27T23:06:04.158Z,995.75
2017-08-27T23:07:04.108Z,995.72
2017-08-27T23:08:04.193Z,995.77
2017-08-27T23:09:03.751Z,995.74
2017-08-27T23:10:03.893Z,995.70
2017-08-27T23:11:03.737Z,995.70
2017-08-27T23:12:03.781Z,995.69
2017-08-27T23:13:03.325Z,995.75
2017-08-27T23:14:03.369Z,995.68
2017-08-27T23:15:08.834Z,995.77
2017-08-27T23:16:03.371Z,995.72
2017-08-27T23:17:03.804Z,995.64
2017-08-27T23:18:03.749Z,995.71
2017-08-27T23:19:03.790Z,995.73
2017-08-27T23:20:04.175Z,995.63
2017-08-27T23:21:04.215Z,995.65
2017-08-27T23:22:04.156Z,995.59
2017-08-27T23:23:04.202Z,995.74
2017-08-27T23:24:04.142Z,995.68
2017-08-27T23:25:04.196Z,995.66
2017-08-27T23:26:04.255Z,995.64
2017-08-27T23:27:03.823Z,995.67
2017-08-27T23:28:03.772Z,995.68
2017-08-27T23:29:03.838Z,995.65
2017-08-27T23:30:03.902Z,995.70
2017-08-27T23:31:03.434Z,995.63
2017-08-27T23:32:04.081Z,995.63
2017-08-27T23:33:03.424Z,995.67
2017-08-27T23:34:03.865Z,995.60
2017-08-27T23:35:03.836Z,995.65
2017-08-27T23:36:03.970Z,995.59
2017-08-27T23:37:04.213Z,995.68
2017-08-27T23:38:04.262Z,995.67
2017-08-27T23:39:04.202Z,995.64
2017-08-27T23:40:04.245Z,995.63
2017-08-27T23:41:04.297Z,995.55
2017-08-27T23:42:03.832Z,995.51
2017-08-27T23:43:03.868Z,995.57
2017-08-27T23:44:03.912Z,995.54
2017-08-27T23:45:04.558Z,995.49
2017-08-27T23:46:03.487Z,995.61
2017-08-27T23:47:03.426Z,995.53
2017-08-27T23:48:03.465Z,995.49
2017-08-27T23:49:03.404Z,995.49
2017-08-27T23:50:03.849Z,995.56
2017-08-27T23:51:03.893Z,995.47
2017-08-27T23:52:04.241Z,995.50
2017-08-27T23:53:03.973Z,995.60
2017-08-27T23:54:04.234Z,995.56
2017-08-27T23:55:04.261Z,995.54
2017-08-27T23:56:04.299Z,995.50
2017-08-27T23:57:04.440Z,995.55
2017-08-27T23:58:04.314Z,995.57
2017-08-27T23:59:03.840Z,995.47
